sensor_id;sensor_type;location;lat;lon;timestamp;temperature;humidity
26035;DHT22;13809;48.632;11.576;2022-07-09T00:01:28;18.60;31.10
26035;DHT22;13809;48.632;11.576;2022-07-09T00:06:31;18.60;30.60
26035;DHT22;13809;48.632;11.576;2022-07-09T00:11:36;18.50;30.50
26035;DHT22;13809;48.632;11.576;2022-07-09T00:16:39;18.30;31.10
26035;DHT22;13809;48.632;11.576;2022-07-09T00:21:42;18.20;31.00
26035;DHT22;13809;48.632;11.576;2022-07-09T00:26:47;18.10;31.30
26035;DHT22;13809;48.632;11.576;2022-07-09T00:31:50;18.10;31.60
26035;DHT22;13809;48.632;11.576;2022-07-09T00:36:53;18.00;31.30
26035;DHT22;13809;48.632;11.576;2022-07-09T00:42:05;17.90;31.30
26035;DHT22;13809;48.632;11.576;2022-07-09T00:47:09;17.80;33.30
26035;DHT22;13809;48.632;11.576;2022-07-09T00:52:13;17.80;31.70
26035;DHT22;13809;48.632;11.576;2022-07-09T00:57:20;17.80;31.90
26035;DHT22;13809;48.632;11.576;2022-07-09T01:02:24;17.70;31.90
26035;DHT22;13809;48.632;11.576;2022-07-09T01:07:27;17.70;31.70
26035;DHT22;13809;48.632;11.576;2022-07-09T01:12:32;17.60;31.90
26035;DHT22;13809;48.632;11.576;2022-07-09T01:17:38;17.70;32.50
26035;DHT22;13809;48.632;11.576;2022-07-09T01:22:43;17.70;32.70
26035;DHT22;13809;48.632;11.576;2022-07-09T01:27:47;17.70;32.30
26035;DHT22;13809;48.632;11.576;2022-07-09T01:32:50;17.60;31.90
26035;DHT22;13809;48.632;11.576;2022-07-09T01:37:55;17.60;32.00
26035;DHT22;13809;48.632;11.576;2022-07-09T01:42:58;17.50;32.40
26035;DHT22;13809;48.632;11.576;2022-07-09T01:48:02;17.50;32.10
26035;DHT22;13809;48.632;11.576;2022-07-09T01:53:06;17.40;32.20
26035;DHT22;13809;48.632;11.576;2022-07-09T01:58:09;17.40;32.90
26035;DHT22;13809;48.632;11.576;2022-07-09T02:03:13;17.30;32.50
26035;DHT22;13809;48.632;11.576;2022-07-09T02:08:17;17.30;32.60
26035;DHT22;13809;48.632;11.576;2022-07-09T02:13:21;17.20;33.20
26035;DHT22;13809;48.632;11.576;2022-07-09T02:18:24;17.20;33.00
26035;DHT22;13809;48.632;11.576;2022-07-09T02:23:28;17.20;33.10
26035;DHT22;13809;48.632;11.576;2022-07-09T02:28:32;17.20;33.90
26035;DHT22;13809;48.632;11.576;2022-07-09T02:33:35;17.20;33.30
26035;DHT22;13809;48.632;11.576;2022-07-09T02:38:40;17.20;33.30
26035;DHT22;13809;48.632;11.576;2022-07-09T02:43:43;17.20;34.00
26035;DHT22;13809;48.632;11.576;2022-07-09T02:48:46;17.20;33.80
26035;DHT22;13809;48.632;11.576;2022-07-09T02:53:51;17.20;33.50
26035;DHT22;13809;48.632;11.576;2022-07-09T02:58:54;17.20;34.00
26035;DHT22;13809;48.632;11.576;2022-07-09T03:03:57;17.20;33.60
26035;DHT22;13809;48.632;11.576;2022-07-09T03:09:02;17.10;33.90
26035;DHT22;13809;48.632;11.576;2022-07-09T03:14:05;17.00;33.90
26035;DHT22;13809;48.632;11.576;2022-07-09T03:19:09;17.00;33.90
26035;DHT22;13809;48.632;11.576;2022-07-09T03:24:13;17.00;33.30
26035;DHT22;13809;48.632;11.576;2022-07-09T03:29:16;17.10;34.50
26035;DHT22;13809;48.632;11.576;2022-07-09T03:34:20;17.10;34.00
26035;DHT22;13809;48.632;11.576;2022-07-09T03:39:25;17.10;34.00
26035;DHT22;13809;48.632;11.576;2022-07-09T03:44:28;17.10;34.60
26035;DHT22;13809;48.632;11.576;2022-07-09T03:49:32;17.20;34.00
26035;DHT22;13809;48.632;11.576;2022-07-09T03:54:36;17.30;34.10
26035;DHT22;13809;48.632;11.576;2022-07-09T03:59:40;17.30;35.30
26035;DHT22;13809;48.632;11.576;2022-07-09T04:04:43;17.40;34.60
26035;DHT22;13809;48.632;11.576;2022-07-09T04:09:48;17.40;34.40
26035;DHT22;13809;48.632;11.576;2022-07-09T04:14:51;17.50;35.20
26035;DHT22;13809;48.632;11.576;2022-07-09T04:19:54;17.50;34.70
26035;DHT22;13809;48.632;11.576;2022-07-09T04:24:59;17.50;34.30
26035;DHT22;13809;48.632;11.576;2022-07-09T04:30:02;17.50;35.10
26035;DHT22;13809;48.632;11.576;2022-07-09T04:35:06;17.60;35.30
26035;DHT22;13809;48.632;11.576;2022-07-09T04:40:12;17.70;35.20
26035;DHT22;13809;48.632;11.576;2022-07-09T04:45:15;17.90;35.50
26035;DHT22;13809;48.632;11.576;2022-07-09T04:50:18;17.90;34.70
26035;DHT22;13809;48.632;11.576;2022-07-09T04:55:23;17.90;34.70
26035;DHT22;13809;48.632;11.576;2022-07-09T05:00:26;18.00;35.40
26035;DHT22;13809;48.632;11.576;2022-07-09T05:05:31;18.10;34.80
26035;DHT22;13809;48.632;11.576;2022-07-09T05:10:46;18.20;36.00
26035;DHT22;13809;48.632;11.576;2022-07-09T05:15:52;18.30;35.70
26035;DHT22;13809;48.632;11.576;2022-07-09T05:20:56;18.30;36.00
26035;DHT22;13809;48.632;11.576;2022-07-09T05:26:05;18.40;35.20
26035;DHT22;13809;48.632;11.576;2022-07-09T05:31:08;18.50;36.10
26035;DHT22;13809;48.632;11.576;2022-07-09T05:36:32;18.60;35.30
26035;DHT22;13809;48.632;11.576;2022-07-09T05:41:36;18.70;35.40
26035;DHT22;13809;48.632;11.576;2022-07-09T05:46:39;18.60;35.30
26035;DHT22;13809;48.632;11.576;2022-07-09T05:51:43;18.70;35.40
26035;DHT22;13809;48.632;11.576;2022-07-09T05:56:47;18.70;35.40
26035;DHT22;13809;48.632;11.576;2022-07-09T06:01:52;18.70;36.10
26035;DHT22;13809;48.632;11.576;2022-07-09T06:06:55;18.70;35.40
26035;DHT22;13809;48.632;11.576;2022-07-09T06:11:59;18.70;35.40
26035;DHT22;13809;48.632;11.576;2022-07-09T06:17:03;18.70;35.60
26035;DHT22;13809;48.632;11.576;2022-07-09T06:22:09;18.80;35.90
26035;DHT22;13809;48.632;11.576;2022-07-09T06:27:13;18.80;35.50
26035;DHT22;13809;48.632;11.576;2022-07-09T06:32:16;18.80;36.30
26035;DHT22;13809;48.632;11.576;2022-07-09T06:37:20;18.90;35.70
26035;DHT22;13809;48.632;11.576;2022-07-09T06:42:24;19.00;36.30
26035;DHT22;13809;48.632;11.576;2022-07-09T06:47:32;19.10;36.70
26035;DHT22;13809;48.632;11.576;2022-07-09T06:52:36;19.20;35.80
26035;DHT22;13809;48.632;11.576;2022-07-09T06:57:40;19.40;36.00
26035;DHT22;13809;48.632;11.576;2022-07-09T07:02:43;19.60;36.20
26035;DHT22;13809;48.632;11.576;2022-07-09T07:07:46;19.70;36.20
26035;DHT22;13809;48.632;11.576;2022-07-09T07:12:51;19.90;35.60
26035;DHT22;13809;48.632;11.576;2022-07-09T07:17:54;20.00;35.20
26035;DHT22;13809;48.632;11.576;2022-07-09T07:22:59;20.10;35.20
26035;DHT22;13809;48.632;11.576;2022-07-09T07:28:04;20.30;35.10
26035;DHT22;13809;48.632;11.576;2022-07-09T07:33:07;20.40;35.50
26035;DHT22;13809;48.632;11.576;2022-07-09T07:38:11;20.60;35.50
26035;DHT22;13809;48.632;11.576;2022-07-09T07:43:15;20.80;35.80
26035;DHT22;13809;48.632;11.576;2022-07-09T07:48:18;21.10;35.30
26035;DHT22;13809;48.632;11.576;2022-07-09T07:53:22;21.30;35.10
26035;DHT22;13809;48.632;11.576;2022-07-09T07:58:26;21.50;35.00
26035;DHT22;13809;48.632;11.576;2022-07-09T08:03:29;21.70;34.70
26035;DHT22;13809;48.632;11.576;2022-07-09T08:08:34;21.90;34.80
26035;DHT22;13809;48.632;11.576;2022-07-09T08:13:39;22.10;34.70
26035;DHT22;13809;48.632;11.576;2022-07-09T08:18:43;22.40;34.30
26035;DHT22;13809;48.632;11.576;2022-07-09T08:23:46;22.70;34.40
26035;DHT22;13809;48.632;11.576;2022-07-09T08:28:57;22.90;34.30
26035;DHT22;13809;48.632;11.576;2022-07-09T08:34:00;23.20;33.00
26035;DHT22;13809;48.632;11.576;2022-07-09T08:39:03;23.30;33.20
26035;DHT22;13809;48.632;11.576;2022-07-09T08:44:17;23.50;33.30
26035;DHT22;13809;48.632;11.576;2022-07-09T08:49:23;23.70;31.50
26035;DHT22;13809;48.632;11.576;2022-07-09T08:54:27;23.90;31.60
26035;DHT22;13809;48.632;11.576;2022-07-09T08:59:32;24.00;31.60
26035;DHT22;13809;48.632;11.576;2022-07-09T09:04:36;24.10;31.00
26035;DHT22;13809;48.632;11.576;2022-07-09T09:09:41;24.20;31.50
26035;DHT22;13809;48.632;11.576;2022-07-09T09:14:49;24.40;31.30
26035;DHT22;13809;48.632;11.576;2022-07-09T09:19:52;24.50;30.00
26035;DHT22;13809;48.632;11.576;2022-07-09T09:24:56;24.60;31.20
26035;DHT22;13809;48.632;11.576;2022-07-09T09:30:00;24.80;30.90
26035;DHT22;13809;48.632;11.576;2022-07-09T09:35:05;24.90;30.00
26035;DHT22;13809;48.632;11.576;2022-07-09T09:40:09;24.90;30.00
26035;DHT22;13809;48.632;11.576;2022-07-09T09:45:15;24.90;30.60
26035;DHT22;13809;48.632;11.576;2022-07-09T09:50:20;24.90;29.50
26035;DHT22;13809;48.632;11.576;2022-07-09T09:55:24;25.10;30.00
26035;DHT22;13809;48.632;11.576;2022-07-09T10:00:29;25.20;29.60
26035;DHT22;13809;48.632;11.576;2022-07-09T10:05:34;25.30;28.50
26035;DHT22;13809;48.632;11.576;2022-07-09T10:10:37;25.40;28.90
26035;DHT22;13809;48.632;11.576;2022-07-09T10:15:48;25.30;28.50
26035;DHT22;13809;48.632;11.576;2022-07-09T10:20:55;25.20;27.80
26035;DHT22;13809;48.632;11.576;2022-07-09T10:25:59;25.10;28.10
26035;DHT22;13809;48.632;11.576;2022-07-09T10:31:08;25.10;28.80
26035;DHT22;13809;48.632;11.576;2022-07-09T10:36:14;25.00;27.40
26035;DHT22;13809;48.632;11.576;2022-07-09T10:41:21;25.00;28.70
26035;DHT22;13809;48.632;11.576;2022-07-09T10:46:25;25.10;28.80
26035;DHT22;13809;48.632;11.576;2022-07-09T10:51:31;25.30;28.90
26035;DHT22;13809;48.632;11.576;2022-07-09T10:56:35;25.50;29.00
26035;DHT22;13809;48.632;11.576;2022-07-09T11:01:40;25.70;28.40
26035;DHT22;13809;48.632;11.576;2022-07-09T11:06:44;25.90;28.10
26035;DHT22;13809;48.632;11.576;2022-07-09T11:11:48;26.00;28.20
26035;DHT22;13809;48.632;11.576;2022-07-09T11:16:56;26.20;27.90
26035;DHT22;13809;48.632;11.576;2022-07-09T11:22:01;26.30;26.80
26035;DHT22;13809;48.632;11.576;2022-07-09T11:27:05;26.40;27.00
26035;DHT22;13809;48.632;11.576;2022-07-09T11:32:15;26.40;26.60
26035;DHT22;13809;48.632;11.576;2022-07-09T11:37:22;26.40;25.70
26035;DHT22;13809;48.632;11.576;2022-07-09T11:42:26;26.30;25.70
26035;DHT22;13809;48.632;11.576;2022-07-09T11:47:35;26.20;26.40
26035;DHT22;13809;48.632;11.576;2022-07-09T11:52:43;26.10;26.00
26035;DHT22;13809;48.632;11.576;2022-07-09T11:57:52;26.00;26.00
26035;DHT22;13809;48.632;11.576;2022-07-09T12:03:01;26.00;26.00
26035;DHT22;13809;48.632;11.576;2022-07-09T12:08:07;26.00;26.20
26035;DHT22;13809;48.632;11.576;2022-07-09T12:13:11;26.00;26.70
26035;DHT22;13809;48.632;11.576;2022-07-09T12:18:15;26.00;27.10
26035;DHT22;13809;48.632;11.576;2022-07-09T12:23:19;26.00;26.90
26035;DHT22;13809;48.632;11.576;2022-07-09T12:28:22;26.10;26.60
26035;DHT22;13809;48.632;11.576;2022-07-09T12:33:27;26.10;26.50
26035;DHT22;13809;48.632;11.576;2022-07-09T12:38:30;26.20;26.00
26035;DHT22;13809;48.632;11.576;2022-07-09T12:43:34;26.20;26.00
26035;DHT22;13809;48.632;11.576;2022-07-09T12:48:38;26.20;25.30
26035;DHT22;13809;48.632;11.576;2022-07-09T12:53:41;26.10;24.90
26035;DHT22;13809;48.632;11.576;2022-07-09T12:58:44;26.00;24.60
26035;DHT22;13809;48.632;11.576;2022-07-09T13:03:49;25.90;25.00
26035;DHT22;13809;48.632;11.576;2022-07-09T13:09:12;25.80;24.90
26035;DHT22;13809;48.632;11.576;2022-07-09T13:14:16;25.80;25.40
26035;DHT22;13809;48.632;11.576;2022-07-09T13:19:20;25.80;25.10
26035;DHT22;13809;48.632;11.576;2022-07-09T13:24:23;25.80;25.20
26035;DHT22;13809;48.632;11.576;2022-07-09T13:29:27;25.80;24.80
26035;DHT22;13809;48.632;11.576;2022-07-09T13:34:31;25.80;24.50
26035;DHT22;13809;48.632;11.576;2022-07-09T13:39:34;25.90;24.60
26035;DHT22;13809;48.632;11.576;2022-07-09T13:44:38;25.90;24.20
26035;DHT22;13809;48.632;11.576;2022-07-09T13:49:43;26.00;24.60
26035;DHT22;13809;48.632;11.576;2022-07-09T13:54:46;26.00;24.40
26035;DHT22;13809;48.632;11.576;2022-07-09T13:59:49;26.10;24.80
26035;DHT22;13809;48.632;11.576;2022-07-09T14:04:54;26.30;25.30
26035;DHT22;13809;48.632;11.576;2022-07-09T14:09:58;26.40;24.40
26035;DHT22;13809;48.632;11.576;2022-07-09T14:15:02;26.40;24.50
26035;DHT22;13809;48.632;11.576;2022-07-09T14:20:08;26.40;24.40
26035;DHT22;13809;48.632;11.576;2022-07-09T14:25:11;26.50;24.20
26035;DHT22;13809;48.632;11.576;2022-07-09T14:30:14;26.50;24.30
26035;DHT22;13809;48.632;11.576;2022-07-09T14:35:19;26.50;24.40
26035;DHT22;13809;48.632;11.576;2022-07-09T14:40:22;26.50;23.80
26035;DHT22;13809;48.632;11.576;2022-07-09T14:45:25;26.40;24.10
26035;DHT22;13809;48.632;11.576;2022-07-09T14:50:30;26.40;24.30
26035;DHT22;13809;48.632;11.576;2022-07-09T14:55:33;26.40;24.10
26035;DHT22;13809;48.632;11.576;2022-07-09T15:00:37;26.40;24.00
26035;DHT22;13809;48.632;11.576;2022-07-09T15:05:42;26.40;24.40
26035;DHT22;13809;48.632;11.576;2022-07-09T15:10:45;26.40;24.00
26035;DHT22;13809;48.632;11.576;2022-07-09T15:15:48;26.40;24.40
26035;DHT22;13809;48.632;11.576;2022-07-09T15:20:53;26.40;24.20
26035;DHT22;13809;48.632;11.576;2022-07-09T15:25:56;26.40;24.40
26035;DHT22;13809;48.632;11.576;2022-07-09T15:30:59;26.50;24.40
26035;DHT22;13809;48.632;11.576;2022-07-09T15:36:05;26.50;24.20
26035;DHT22;13809;48.632;11.576;2022-07-09T15:41:09;26.60;23.60
26035;DHT22;13809;48.632;11.576;2022-07-09T15:46:13;26.50;24.00
26035;DHT22;13809;48.632;11.576;2022-07-09T15:51:18;26.40;24.10
26035;DHT22;13809;48.632;11.576;2022-07-09T15:56:21;26.50;24.10
26035;DHT22;13809;48.632;11.576;2022-07-09T16:01:25;26.50;24.30
26035;DHT22;13809;48.632;11.576;2022-07-09T16:06:30;26.50;24.40
26035;DHT22;13809;48.632;11.576;2022-07-09T16:11:33;26.40;24.10
26035;DHT22;13809;48.632;11.576;2022-07-09T16:16:54;26.50;24.80
26035;DHT22;13809;48.632;11.576;2022-07-09T16:21:58;26.40;24.00
26035;DHT22;13809;48.632;11.576;2022-07-09T16:27:02;26.40;24.20
26035;DHT22;13809;48.632;11.576;2022-07-09T16:32:06;26.50;24.30
26035;DHT22;13809;48.632;11.576;2022-07-09T16:37:10;26.50;24.20
26035;DHT22;13809;48.632;11.576;2022-07-09T16:42:13;26.50;24.00
26035;DHT22;13809;48.632;11.576;2022-07-09T16:47:17;26.40;24.10
26035;DHT22;13809;48.632;11.576;2022-07-09T16:52:21;26.40;24.10
26035;DHT22;13809;48.632;11.576;2022-07-09T16:57:24;26.40;24.20
26035;DHT22;13809;48.632;11.576;2022-07-09T17:02:30;26.30;24.30
26035;DHT22;13809;48.632;11.576;2022-07-09T17:07:34;26.30;24.30
26035;DHT22;13809;48.632;11.576;2022-07-09T17:12:38;26.30;24.30
26035;DHT22;13809;48.632;11.576;2022-07-09T17:17:42;26.30;24.40
26035;DHT22;13809;48.632;11.576;2022-07-09T17:22:47;26.30;24.40
26035;DHT22;13809;48.632;11.576;2022-07-09T17:27:52;26.30;24.30
26035;DHT22;13809;48.632;11.576;2022-07-09T17:32:55;26.20;24.30
26035;DHT22;13809;48.632;11.576;2022-07-09T17:38:00;26.20;24.30
26035;DHT22;13809;48.632;11.576;2022-07-09T17:43:03;26.10;24.50
26035;DHT22;13809;48.632;11.576;2022-07-09T17:48:07;26.10;24.50
26035;DHT22;13809;48.632;11.576;2022-07-09T17:53:11;26.10;24.50
26035;DHT22;13809;48.632;11.576;2022-07-09T17:58:15;26.10;24.40
26035;DHT22;13809;48.632;11.576;2022-07-09T18:03:20;26.10;24.60
26035;DHT22;13809;48.632;11.576;2022-07-09T18:08:25;26.10;24.60
26035;DHT22;13809;48.632;11.576;2022-07-09T18:13:28;26.10;24.70
26035;DHT22;13809;48.632;11.576;2022-07-09T18:18:31;26.10;24.50
26035;DHT22;13809;48.632;11.576;2022-07-09T18:23:36;26.10;24.50
26035;DHT22;13809;48.632;11.576;2022-07-09T18:28:39;26.10;24.70
26035;DHT22;13809;48.632;11.576;2022-07-09T18:33:43;26.10;24.90
26035;DHT22;13809;48.632;11.576;2022-07-09T18:38:48;26.00;25.10
26035;DHT22;13809;48.632;11.576;2022-07-09T18:43:51;26.00;25.30
26035;DHT22;13809;48.632;11.576;2022-07-09T18:48:54;26.00;25.40
26035;DHT22;13809;48.632;11.576;2022-07-09T18:53:59;26.00;25.60
26035;DHT22;13809;48.632;11.576;2022-07-09T18:59:02;25.90;25.90
26035;DHT22;13809;48.632;11.576;2022-07-09T19:04:05;25.80;25.70
26035;DHT22;13809;48.632;11.576;2022-07-09T19:09:10;25.70;25.80
26035;DHT22;13809;48.632;11.576;2022-07-09T19:14:13;25.50;26.10
26035;DHT22;13809;48.632;11.576;2022-07-09T19:19:16;25.40;26.10
26035;DHT22;13809;48.632;11.576;2022-07-09T19:24:21;25.30;26.30
26035;DHT22;13809;48.632;11.576;2022-07-09T19:29:24;25.20;26.50
26035;DHT22;13809;48.632;11.576;2022-07-09T19:34:27;25.00;26.50
26035;DHT22;13809;48.632;11.576;2022-07-09T19:39:32;25.00;27.30
26035;DHT22;13809;48.632;11.576;2022-07-09T19:44:35;25.00;27.10
26035;DHT22;13809;48.632;11.576;2022-07-09T19:49:39;25.00;27.00
26035;DHT22;13809;48.632;11.576;2022-07-09T19:54:43;25.00;27.30
26035;DHT22;13809;48.632;11.576;2022-07-09T19:59:47;25.00;27.50
26035;DHT22;13809;48.632;11.576;2022-07-09T20:04:50;25.00;27.40
26035;DHT22;13809;48.632;11.576;2022-07-09T20:09:54;25.00;27.40
26035;DHT22;13809;48.632;11.576;2022-07-09T20:14:58;24.90;27.70
26035;DHT22;13809;48.632;11.576;2022-07-09T20:20:05;24.90;27.90
26035;DHT22;13809;48.632;11.576;2022-07-09T20:25:10;24.90;28.30
26035;DHT22;13809;48.632;11.576;2022-07-09T20:30:13;24.90;28.60
26035;DHT22;13809;48.632;11.576;2022-07-09T20:35:16;24.90;28.60
26035;DHT22;13809;48.632;11.576;2022-07-09T20:40:21;24.70;28.50
26035;DHT22;13809;48.632;11.576;2022-07-09T20:45:24;24.60;28.80
26035;DHT22;13809;48.632;11.576;2022-07-09T20:50:27;24.50;28.40
26035;DHT22;13809;48.632;11.576;2022-07-09T20:55:32;24.30;28.40
26035;DHT22;13809;48.632;11.576;2022-07-09T21:00:35;24.10;29.30
26035;DHT22;13809;48.632;11.576;2022-07-09T21:05:38;24.10;29.30
26035;DHT22;13809;48.632;11.576;2022-07-09T21:10:43;24.00;29.40
26035;DHT22;13809;48.632;11.576;2022-07-09T21:15:46;24.10;30.00
26035;DHT22;13809;48.632;11.576;2022-07-09T21:20:51;23.90;29.40
26035;DHT22;13809;48.632;11.576;2022-07-09T21:25:56;23.60;29.60
26035;DHT22;13809;48.632;11.576;2022-07-09T21:30:59;23.70;30.20
26035;DHT22;13809;48.632;11.576;2022-07-09T21:36:03;23.60;30.00
26035;DHT22;13809;48.632;11.576;2022-07-09T21:41:07;23.70;30.20
26035;DHT22;13809;48.632;11.576;2022-07-09T21:46:11;23.70;30.80
26035;DHT22;13809;48.632;11.576;2022-07-09T21:51:14;23.70;30.20
26035;DHT22;13809;48.632;11.576;2022-07-09T21:56:18;23.80;30.40
26035;DHT22;13809;48.632;11.576;2022-07-09T22:01:22;23.80;31.00
26035;DHT22;13809;48.632;11.576;2022-07-09T22:06:25;23.80;30.50
26035;DHT22;13809;48.632;11.576;2022-07-09T22:11:30;23.80;30.80
26035;DHT22;13809;48.632;11.576;2022-07-09T22:16:34;23.70;31.00
26035;DHT22;13809;48.632;11.576;2022-07-09T22:21:37;23.60;30.50
26035;DHT22;13809;48.632;11.576;2022-07-09T22:26:42;23.50;30.60
26035;DHT22;13809;48.632;11.576;2022-07-09T22:31:45;23.50;31.20
26035;DHT22;13809;48.632;11.576;2022-07-09T22:36:48;23.40;30.70
26035;DHT22;13809;48.632;11.576;2022-07-09T22:41:53;23.40;31.20
26035;DHT22;13809;48.632;11.576;2022-07-09T22:46:56;23.30;30.00
26035;DHT22;13809;48.632;11.576;2022-07-09T22:51:59;23.30;30.50
26035;DHT22;13809;48.632;11.576;2022-07-09T22:57:04;23.20;29.90
26035;DHT22;13809;48.632;11.576;2022-07-09T23:02:07;23.10;30.10
26035;DHT22;13809;48.632;11.576;2022-07-09T23:07:11;23.10;30.00
26035;DHT22;13809;48.632;11.576;2022-07-09T23:12:36;23.00;30.00
26035;DHT22;13809;48.632;11.576;2022-07-09T23:17:39;22.90;30.50
26035;DHT22;13809;48.632;11.576;2022-07-09T23:22:42;22.90;31.20
26035;DHT22;13809;48.632;11.576;2022-07-09T23:27:47;22.90;30.50
26035;DHT22;13809;48.632;11.576;2022-07-09T23:32:50;22.90;30.90
26035;DHT22;13809;48.632;11.576;2022-07-09T23:37:53;22.90;30.60
26035;DHT22;13809;48.632;11.576;2022-07-09T23:42:57;22.80;30.60
26035;DHT22;13809;48.632;11.576;2022-07-09T23:48:01;22.70;31.30
26035;DHT22;13809;48.632;11.576;2022-07-09T23:53:04;22.60;31.30
26035;DHT22;13809;48.632;11.576;2022-07-09T23:58:09;22.60;31.10
